createdAt,value
2018-12-23T00:00:13.574Z,11.00
2018-12-23T00:02:42.414Z,11.00
2018-12-23T00:05:11.634Z,11.10
2018-12-23T00:07:40.782Z,11.00
2018-12-23T00:10:10.011Z,11.10
2018-12-23T00:12:38.849Z,11.10
2018-12-23T00:15:08.610Z,11.10
2018-12-23T00:17:37.485Z,11.10
2018-12-23T00:20:08.273Z,11.10
2018-12-23T00:22:37.101Z,11.20
2018-12-23T00:25:06.172Z,11.20
2018-12-23T00:27:35.302Z,11.20
2018-12-23T00:30:04.261Z,11.10
2018-12-23T00:32:33.143Z,11.10
2018-12-23T00:35:02.202Z,11.00
2018-12-23T00:37:31.160Z,11.00
2018-12-23T00:39:59.994Z,11.00
2018-12-23T00:42:29.150Z,11.00
2018-12-23T00:44:58.133Z,11.00
2018-12-23T00:47:27.133Z,10.90
2018-12-23T00:49:56.114Z,11.00
2018-12-23T00:52:25.253Z,10.90
2018-12-23T00:54:54.309Z,10.90
2018-12-23T00:57:23.214Z,10.90
2018-12-23T00:59:52.331Z,10.90
2018-12-23T01:02:21.309Z,10.90
2018-12-23T01:04:50.388Z,10.90
2018-12-23T01:07:19.305Z,10.90
2018-12-23T01:09:48.175Z,10.90
2018-12-23T01:12:17.164Z,10.90
2018-12-23T01:14:46.062Z,10.90
2018-12-23T01:17:14.961Z,10.90
2018-12-23T01:19:44.042Z,11.00
2018-12-23T01:22:13.529Z,10.90
2018-12-23T01:24:42.521Z,10.90
2018-12-23T01:27:11.441Z,10.90
2018-12-23T01:29:40.383Z,10.80
2018-12-23T01:32:09.501Z,10.80
2018-12-23T01:34:38.431Z,10.90
2018-12-23T01:37:07.327Z,10.80
2018-12-23T01:39:36.252Z,10.90
2018-12-23T01:42:05.474Z,10.90
2018-12-23T01:47:09.807Z,10.80
2018-12-23T01:49:38.962Z,10.80
2018-12-23T01:52:07.794Z,10.80
2018-12-23T01:54:36.821Z,10.80
2018-12-23T01:57:05.929Z,10.70
2018-12-23T01:59:34.781Z,10.70
2018-12-23T02:02:03.826Z,10.70
2018-12-23T02:04:32.889Z,10.80
2018-12-23T02:07:02.294Z,10.70
2018-12-23T02:09:32.189Z,10.70
2018-12-23T02:12:01.178Z,10.60
2018-12-23T02:14:30.177Z,10.60
2018-12-23T02:16:59.190Z,10.70
2018-12-23T02:19:28.146Z,10.70
2018-12-23T02:21:57.142Z,10.70
2018-12-23T02:24:26.071Z,10.80
2018-12-23T02:26:54.973Z,10.70
2018-12-23T02:29:23.827Z,10.70
2018-12-23T02:31:52.911Z,10.70
2018-12-23T02:34:21.932Z,10.70
2018-12-23T02:36:50.950Z,10.80
2018-12-23T02:39:19.927Z,10.80
2018-12-23T02:41:49.012Z,10.80
2018-12-23T02:44:18.002Z,10.80
2018-12-23T02:46:46.973Z,10.70
2018-12-23T02:49:16.000Z,10.80
2018-12-23T02:51:44.865Z,10.80
2018-12-23T02:54:14.290Z,10.70
2018-12-23T02:56:43.166Z,10.70
2018-12-23T02:59:12.210Z,10.70
2018-12-23T03:01:41.332Z,10.70
2018-12-23T03:04:10.253Z,10.60
2018-12-23T03:06:39.146Z,10.60
2018-12-23T03:09:08.138Z,10.50
2018-12-23T03:11:37.129Z,10.50
2018-12-23T03:14:06.128Z,10.50
2018-12-23T03:16:35.302Z,10.50
2018-12-23T03:19:04.422Z,10.50
2018-12-23T03:21:33.285Z,10.50
2018-12-23T03:24:02.998Z,10.50
2018-12-23T03:26:32.143Z,10.50
2018-12-23T03:29:01.466Z,10.50
2018-12-23T03:31:30.705Z,10.50
2018-12-23T03:33:59.715Z,10.40
2018-12-23T03:36:28.597Z,10.40
2018-12-23T03:38:57.611Z,10.40
2018-12-23T03:41:26.702Z,10.40
2018-12-23T03:43:55.824Z,10.40
2018-12-23T03:46:24.865Z,10.40
2018-12-23T03:48:53.914Z,10.40
2018-12-23T03:51:22.953Z,10.40
2018-12-23T03:53:51.983Z,10.40
2018-12-23T03:56:21.036Z,10.30
2018-12-23T03:58:49.986Z,10.20
2018-12-23T04:01:19.062Z,10.20
2018-12-23T04:03:47.990Z,10.30
2018-12-23T04:06:24.503Z,10.20
2018-12-23T04:08:47.881Z,10.20
2018-12-23T04:11:16.958Z,10.20
2018-12-23T04:13:45.824Z,10.20
2018-12-23T04:16:14.701Z,10.20
2018-12-23T04:18:43.705Z,10.20
2018-12-23T04:21:12.597Z,10.20
2018-12-23T04:26:16.854Z,10.20
2018-12-23T04:28:45.718Z,10.20
2018-12-23T04:31:14.803Z,10.20
2018-12-23T04:33:43.794Z,10.20
2018-12-23T04:36:12.883Z,10.20
2018-12-23T04:38:41.832Z,10.20
2018-12-23T04:41:10.716Z,10.20
2018-12-23T04:43:39.691Z,10.20
2018-12-23T04:46:08.660Z,10.20
2018-12-23T04:48:38.144Z,10.30
2018-12-23T04:51:07.095Z,10.30
2018-12-23T04:53:35.956Z,10.30
2018-12-23T04:56:04.843Z,10.20
2018-12-23T04:58:33.831Z,10.20
2018-12-23T05:01:03.113Z,10.30
2018-12-23T05:03:32.017Z,10.20
2018-12-23T05:06:01.438Z,10.20
2018-12-23T05:08:30.406Z,10.30
2018-12-23T05:10:59.413Z,10.20
2018-12-23T05:13:28.539Z,10.20
2018-12-23T05:15:57.401Z,10.20
2018-12-23T05:18:27.396Z,10.20
2018-12-23T05:20:56.404Z,10.20
2018-12-23T05:23:25.530Z,10.30
2018-12-23T05:25:54.502Z,10.30
2018-12-23T05:28:23.414Z,10.30
2018-12-23T05:30:52.393Z,10.30
2018-12-23T05:33:21.398Z,10.30
2018-12-23T05:35:50.266Z,10.30
2018-12-23T05:38:19.169Z,10.30
2018-12-23T05:40:48.143Z,10.30
2018-12-23T05:43:17.050Z,10.20
2018-12-23T05:45:46.060Z,10.20
2018-12-23T05:48:15.023Z,10.30
2018-12-23T05:50:44.021Z,10.20
2018-12-23T05:53:12.925Z,10.20
2018-12-23T05:55:40.809Z,10.20
2018-12-23T05:58:09.681Z,10.20
2018-12-23T06:00:38.511Z,10.20
2018-12-23T06:03:07.493Z,10.20
2018-12-23T06:05:36.326Z,10.20
2018-12-23T06:08:05.441Z,10.20
2018-12-23T06:10:34.325Z,10.20
2018-12-23T06:13:03.539Z,10.20
2018-12-23T06:15:32.421Z,10.20
2018-12-23T06:18:01.482Z,10.20
2018-12-23T06:20:30.531Z,10.20
2018-12-23T06:22:59.524Z,10.20
2018-12-23T06:25:28.494Z,10.20
2018-12-23T06:27:57.414Z,10.20
2018-12-23T06:30:26.271Z,10.20
2018-12-23T06:32:55.388Z,10.20
2018-12-23T06:35:24.253Z,10.20
2018-12-23T06:37:53.142Z,10.10
2018-12-23T06:40:22.242Z,10.20
2018-12-23T06:42:51.153Z,10.20
2018-12-23T06:45:20.020Z,10.20
2018-12-23T06:47:48.909Z,10.20
2018-12-23T06:50:18.026Z,10.20
2018-12-23T06:52:47.109Z,10.20
2018-12-23T06:55:16.013Z,10.30
2018-12-23T06:57:44.982Z,10.30
2018-12-23T07:00:14.016Z,10.20
2018-12-23T07:02:42.869Z,10.20
2018-12-23T07:05:11.761Z,10.20
2018-12-23T07:07:40.672Z,10.20
2018-12-23T07:10:09.566Z,10.20
2018-12-23T07:12:38.541Z,10.10
2018-12-23T07:15:07.574Z,10.00
2018-12-23T07:17:36.605Z,10.10
2018-12-23T07:20:05.969Z,10.10
2018-12-23T07:22:34.872Z,10.10
2018-12-23T07:25:03.950Z,10.10
2018-12-23T07:27:32.817Z,10.10
2018-12-23T07:30:02.264Z,10.10
2018-12-23T07:32:31.279Z,10.10
2018-12-23T07:35:00.310Z,10.10
2018-12-23T07:37:29.368Z,10.20
2018-12-23T07:39:58.450Z,10.10
2018-12-23T07:42:27.364Z,10.20
2018-12-23T07:44:56.398Z,10.20
2018-12-23T07:47:25.371Z,10.20
2018-12-23T07:49:54.354Z,10.10
2018-12-23T07:52:23.465Z,10.10
2018-12-23T07:54:52.554Z,10.20
2018-12-23T07:57:21.433Z,10.20
2018-12-23T07:59:50.419Z,10.20
2018-12-23T08:02:19.344Z,10.20
2018-12-23T08:04:48.404Z,10.20
2018-12-23T08:07:17.416Z,10.20
2018-12-23T08:09:46.514Z,10.20
2018-12-23T08:12:15.482Z,10.20
2018-12-23T08:14:44.646Z,10.30
2018-12-23T08:17:13.685Z,10.30
2018-12-23T08:19:42.673Z,10.30
2018-12-23T08:22:11.676Z,10.30
2018-12-23T08:24:40.615Z,10.40
2018-12-23T08:27:09.730Z,10.40
2018-12-23T08:29:38.775Z,10.60
2018-12-23T08:32:07.916Z,10.60
2018-12-23T08:34:36.949Z,10.50
2018-12-23T08:37:05.921Z,10.50
2018-12-23T08:39:35.178Z,10.50
2018-12-23T08:42:04.350Z,10.30
2018-12-23T08:44:33.286Z,10.30
2018-12-23T08:47:02.842Z,10.30
2018-12-23T08:49:31.710Z,10.40
2018-12-23T08:52:00.812Z,10.40
2018-12-23T08:54:29.805Z,10.40
2018-12-23T08:56:58.922Z,10.40
2018-12-23T08:59:27.898Z,10.50
2018-12-23T09:01:56.894Z,10.40
2018-12-23T09:04:26.439Z,10.50
2018-12-23T09:06:55.481Z,10.50
2018-12-23T09:09:24.412Z,10.50
2018-12-23T09:11:53.260Z,10.50
2018-12-23T09:14:22.191Z,10.40
2018-12-23T09:16:51.037Z,10.50
2018-12-23T09:19:19.978Z,10.60
2018-12-23T09:21:48.852Z,10.50
2018-12-23T09:24:17.766Z,10.60
2018-12-23T09:26:46.799Z,10.70
2018-12-23T09:29:15.917Z,10.70
2018-12-23T09:31:44.813Z,10.70
2018-12-23T09:34:13.708Z,10.70
2018-12-23T09:36:42.702Z,10.80
2018-12-23T09:39:11.596Z,10.80
2018-12-23T09:41:40.467Z,10.80
2018-12-23T09:44:09.393Z,10.80
2018-12-23T09:46:38.571Z,10.90
2018-12-23T09:49:07.541Z,10.90
2018-12-23T09:51:36.457Z,10.90
2018-12-23T09:54:05.651Z,10.80
2018-12-23T09:56:34.676Z,10.80
2018-12-23T09:59:03.546Z,10.80
2018-12-23T10:01:32.452Z,10.90
2018-12-23T10:04:01.311Z,10.80
2018-12-23T10:06:30.408Z,10.80
2018-12-23T10:08:59.282Z,10.90
2018-12-23T10:11:28.290Z,10.80
2018-12-23T10:13:57.368Z,10.80
2018-12-23T10:16:26.404Z,10.90
2018-12-23T10:18:55.246Z,10.80
2018-12-23T10:21:24.257Z,10.90
2018-12-23T10:23:53.533Z,10.90
2018-12-23T10:26:22.663Z,11.00
2018-12-23T10:28:51.582Z,11.00
2018-12-23T10:31:20.544Z,11.00
2018-12-23T10:33:49.634Z,11.10
2018-12-23T10:36:19.078Z,11.10
2018-12-23T10:38:48.036Z,11.00
2018-12-23T10:41:16.945Z,11.00
2018-12-23T10:43:46.229Z,11.10
2018-12-23T10:46:15.506Z,11.10
2018-12-23T10:48:44.521Z,11.20
2018-12-23T10:51:13.406Z,11.20
2018-12-23T10:53:42.508Z,11.30
2018-12-23T10:56:11.499Z,11.30
2018-12-23T10:58:40.452Z,11.20
2018-12-23T11:01:09.469Z,11.30
2018-12-23T11:03:38.359Z,11.30
2018-12-23T11:06:07.264Z,11.20
2018-12-23T11:08:36.227Z,11.30
2018-12-23T11:11:07.840Z,11.40
2018-12-23T11:13:36.703Z,11.50
2018-12-23T11:16:05.731Z,11.40
2018-12-23T11:18:34.671Z,11.40
2018-12-23T11:21:03.685Z,11.40
2018-12-23T11:23:32.571Z,11.30
2018-12-23T11:26:01.454Z,11.30
2018-12-23T11:28:30.351Z,11.30
2018-12-23T11:30:59.338Z,11.20
2018-12-23T11:33:28.220Z,11.10
2018-12-23T11:35:57.118Z,11.10
2018-12-23T11:38:26.143Z,11.10
2018-12-23T11:40:54.996Z,11.20
2018-12-23T11:43:23.970Z,11.10
2018-12-23T11:45:52.890Z,11.10
2018-12-23T11:48:21.770Z,11.10
2018-12-23T11:50:50.893Z,11.10
2018-12-23T11:53:19.755Z,11.00
2018-12-23T11:55:48.701Z,11.00
2018-12-23T11:58:17.781Z,11.10
2018-12-23T12:00:46.710Z,11.00
2018-12-23T12:03:15.738Z,11.10
2018-12-23T12:05:44.632Z,11.10
2018-12-23T14:10:20.079Z,11.20
2018-12-23T14:12:49.360Z,11.20
2018-12-23T14:15:18.604Z,11.10
2018-12-23T14:17:47.805Z,11.10
2018-12-23T14:20:16.930Z,10.90
2018-12-23T14:22:46.036Z,10.90
2018-12-23T14:25:15.141Z,10.90
2018-12-23T14:27:44.229Z,11.00
2018-12-23T14:30:13.322Z,11.10
2018-12-23T14:32:42.314Z,11.10
2018-12-23T14:35:11.321Z,11.10
2018-12-23T14:37:40.424Z,11.00
2018-12-23T14:40:09.510Z,10.80
2018-12-23T14:42:38.500Z,10.90
2018-12-23T14:45:07.551Z,11.00
2018-12-23T14:47:36.535Z,10.80
2018-12-23T14:50:07.411Z,10.90
2018-12-23T14:52:36.575Z,10.90
2018-12-23T14:55:05.806Z,10.90
2018-12-23T14:57:34.786Z,11.00
2018-12-23T15:00:04.742Z,10.90
2018-12-23T15:02:33.755Z,11.00
2018-12-23T15:05:03.262Z,11.00
2018-12-23T15:07:32.204Z,11.00
2018-12-23T15:10:01.513Z,10.90
2018-12-23T15:12:30.536Z,10.90
2018-12-23T15:14:59.542Z,11.00
2018-12-23T15:17:28.432Z,10.90
2018-12-23T15:19:58.051Z,10.90
2018-12-23T15:22:27.401Z,10.90
2018-12-23T15:24:56.384Z,10.80
2018-12-23T15:27:25.432Z,10.90
2018-12-23T15:33:25.932Z,10.70
2018-12-23T15:38:49.907Z,10.70
2018-12-23T15:44:14.356Z,10.60
2018-12-23T15:46:56.083Z,10.70
2018-12-23T15:49:37.347Z,10.70
2018-12-23T15:52:18.956Z,10.60
2018-12-23T15:55:00.655Z,10.60
2018-12-23T15:57:42.245Z,10.70
2018-12-23T16:00:24.083Z,10.70
2018-12-23T16:03:05.345Z,10.80
2018-12-23T16:05:47.123Z,10.70
2018-12-23T16:08:28.540Z,10.60
2018-12-23T16:11:09.866Z,10.40
2018-12-23T16:13:51.398Z,10.50
2018-12-23T16:16:32.807Z,10.50
2018-12-23T16:21:57.166Z,10.60
2018-12-23T16:24:38.670Z,10.60
2018-12-23T16:27:20.008Z,10.60
2018-12-23T16:30:01.319Z,10.70
2018-12-23T16:32:42.345Z,10.60
2018-12-23T16:35:23.987Z,10.60
2018-12-23T16:38:05.459Z,10.60
2018-12-23T16:40:47.216Z,10.60
2018-12-23T16:43:35.895Z,10.60
2018-12-23T16:46:24.666Z,10.50
2018-12-23T16:49:13.401Z,10.60
2018-12-23T16:52:02.186Z,10.60
2018-12-23T16:54:50.920Z,10.60
2018-12-23T17:00:54.194Z,10.70
2018-12-23T17:03:42.956Z,10.70
2018-12-23T17:06:31.726Z,10.70
2018-12-23T17:09:20.512Z,10.70
2018-12-23T17:12:09.319Z,10.70
2018-12-23T17:18:06.231Z,10.70
2018-12-23T17:20:54.982Z,10.70
2018-12-23T17:26:58.757Z,10.80
2018-12-23T17:29:47.591Z,10.80
2018-12-23T17:32:36.375Z,10.90
2018-12-23T17:35:25.130Z,10.90
2018-12-23T17:38:06.777Z,10.90
2018-12-23T17:40:48.201Z,10.90
2018-12-23T17:43:30.098Z,11.00
2018-12-23T17:46:14.649Z,11.10
2018-12-23T17:48:56.108Z,11.00
2018-12-23T17:51:37.158Z,10.90
2018-12-23T17:54:18.291Z,11.10
2018-12-23T17:56:59.427Z,11.10
2018-12-23T17:59:40.797Z,11.20
2018-12-23T18:02:22.714Z,11.20
2018-12-23T18:05:04.285Z,11.30
2018-12-23T18:07:45.531Z,11.30
2018-12-23T18:10:26.759Z,11.30
2018-12-23T18:13:08.518Z,11.30
2018-12-23T18:15:50.240Z,11.30
2018-12-23T18:18:31.761Z,11.30
2018-12-23T18:21:13.020Z,11.40
2018-12-23T18:23:54.268Z,11.40
2018-12-23T18:26:36.123Z,11.30
2018-12-23T18:29:17.616Z,11.30
2018-12-23T18:31:58.822Z,11.30
2018-12-23T18:34:40.128Z,11.40
2018-12-23T18:37:21.438Z,11.40
2018-12-23T18:40:02.748Z,11.50
2018-12-23T18:42:44.499Z,11.50
2018-12-23T18:45:26.212Z,11.50
2018-12-23T18:48:07.354Z,11.60
2018-12-23T18:50:48.605Z,11.60
2018-12-23T18:53:29.838Z,11.60
2018-12-23T18:56:11.001Z,11.70
2018-12-23T18:58:52.183Z,11.80
2018-12-23T19:01:33.594Z,11.80
2018-12-23T19:04:15.128Z,11.80
2018-12-23T19:06:56.545Z,11.80
2018-12-23T19:09:37.720Z,11.90
2018-12-23T19:12:19.040Z,11.90
2018-12-23T19:15:00.301Z,11.90
2018-12-23T19:17:41.437Z,12.00
2018-12-23T19:20:22.740Z,12.00
2018-12-23T19:23:04.090Z,12.10
2018-12-23T19:25:45.471Z,12.10
2018-12-23T19:28:26.895Z,12.20
2018-12-23T19:31:08.048Z,12.20
2018-12-23T19:33:49.293Z,12.30
2018-12-23T19:36:30.854Z,12.30
2018-12-23T19:39:12.139Z,12.30
2018-12-23T19:41:53.753Z,12.30
2018-12-23T19:44:34.879Z,12.40
2018-12-23T19:47:16.163Z,12.40
2018-12-23T19:49:57.293Z,12.40
2018-12-23T19:52:39.256Z,12.40
2018-12-23T19:55:21.092Z,12.40
2018-12-23T19:58:02.471Z,12.50
2018-12-23T20:00:44.186Z,12.50
2018-12-23T20:03:25.270Z,12.50
2018-12-23T20:06:06.897Z,12.60
2018-12-23T20:08:47.942Z,12.60
2018-12-23T20:11:29.348Z,12.70
2018-12-23T20:14:10.555Z,12.70
2018-12-23T20:16:52.094Z,12.70
2018-12-23T20:19:33.241Z,12.70
2018-12-23T20:22:14.983Z,12.70
2018-12-23T20:24:56.514Z,12.70
2018-12-23T20:27:37.712Z,12.70
2018-12-23T20:30:19.122Z,12.80
2018-12-23T20:33:00.694Z,12.80
2018-12-23T20:35:42.234Z,12.80
2018-12-23T20:38:24.049Z,12.80
2018-12-23T20:41:07.719Z,12.80
2018-12-23T20:43:48.794Z,12.80
2018-12-23T20:46:30.310Z,12.80
2018-12-23T20:49:11.535Z,12.90
2018-12-23T20:51:52.812Z,12.90
2018-12-23T20:54:34.072Z,12.80
2018-12-23T20:57:15.311Z,12.80
2018-12-23T20:59:56.700Z,12.80
2018-12-23T21:02:37.895Z,12.80
2018-12-23T21:05:19.037Z,12.80
2018-12-23T21:08:00.353Z,12.90
2018-12-23T21:10:42.015Z,12.90
2018-12-23T21:13:23.483Z,13.00
2018-12-23T21:16:04.645Z,13.00
2018-12-23T21:18:45.939Z,13.00
2018-12-23T21:21:27.308Z,13.00
2018-12-23T21:24:08.884Z,13.00
2018-12-23T21:26:50.165Z,13.00
2018-12-23T21:29:31.390Z,13.00
2018-12-23T21:32:12.996Z,13.00
2018-12-23T21:34:54.124Z,13.00
2018-12-23T21:37:35.297Z,13.00
2018-12-23T21:40:16.943Z,13.10
2018-12-23T21:42:58.291Z,13.10
2018-12-23T21:45:39.432Z,13.20
2018-12-23T21:48:21.086Z,13.30
2018-12-23T21:51:02.418Z,13.40
2018-12-23T21:53:43.815Z,13.50
2018-12-23T21:56:25.295Z,13.60
2018-12-23T21:59:06.839Z,13.60
2018-12-23T22:01:48.643Z,13.60
2018-12-23T22:04:30.361Z,13.60
2018-12-23T22:07:11.606Z,13.60
2018-12-23T22:09:53.321Z,13.70
2018-12-23T22:12:34.969Z,13.60
2018-12-23T22:15:16.351Z,13.60
2018-12-23T22:17:58.099Z,13.60
2018-12-23T22:20:39.573Z,13.60
2018-12-23T22:23:09.431Z,13.60
2018-12-23T22:25:39.324Z,13.60
2018-12-23T22:28:09.040Z,13.70
2018-12-23T22:30:38.860Z,13.60
2018-12-23T22:33:08.576Z,13.60
2018-12-23T22:35:38.287Z,13.60
2018-12-23T22:38:08.023Z,13.60
2018-12-23T22:40:39.649Z,13.60
2018-12-23T22:43:09.316Z,13.60
2018-12-23T22:45:39.004Z,13.60
2018-12-23T22:48:08.694Z,13.60
2018-12-23T22:50:38.461Z,13.60
2018-12-23T22:53:08.165Z,13.60
2018-12-23T22:55:37.872Z,13.60
2018-12-23T22:58:07.585Z,13.70
2018-12-23T23:00:37.416Z,13.60
2018-12-23T23:03:09.215Z,13.60
2018-12-23T23:05:38.543Z,13.50
2018-12-23T23:08:08.294Z,13.60
2018-12-23T23:10:38.069Z,13.60
2018-12-23T23:13:07.870Z,13.60
2018-12-23T23:15:37.518Z,13.60
2018-12-23T23:18:07.240Z,13.60
2018-12-23T23:20:37.010Z,13.60
2018-12-23T23:23:06.944Z,13.60
2018-12-23T23:25:36.718Z,13.60
2018-12-23T23:28:06.556Z,13.60
2018-12-23T23:30:36.287Z,13.60
2018-12-23T23:33:05.970Z,13.60
2018-12-23T23:35:35.602Z,13.60
2018-12-23T23:38:05.286Z,13.60
2018-12-23T23:40:35.018Z,13.60
2018-12-23T23:43:04.674Z,13.60
2018-12-23T23:45:34.353Z,13.60
2018-12-23T23:48:03.997Z,13.60
2018-12-23T23:50:33.671Z,13.60
2018-12-23T23:53:03.408Z,13.70
2018-12-23T23:55:33.177Z,13.70
2018-12-23T23:58:02.890Z,13.70
